Augusta Township, Michigan
Current Conditions -  °F | °C
As of 4:53 PM on Sunday 25 Jan 2015 (Local Time) from KARB Reporting Station
Overcast Overcast  
Wind Chill: -11°   Ceiling: 7500
Heat Index: -4°   Visibility: 10mi
Dew Point: -11°   Wind: 14mph
Humidity: 60%   Direction: 60°ENE
Pressure: 29.9"   Gusts: NA
Location:  42.0828°N, 83.683°W
Report Text: KARB 252153Z 06012KT 10SM OVC075 M04/M11 A2990 RMK AO2 SLP134 T10441111
Loading
Personal Weather Stations






























Interactive Weather Map New forecast layout! Learn more

10-Day Weather Forecast

Advertisements
Track Severe Weather on mobile